createdAt,value
2018-05-01T00:00:09.429Z,10.30
2018-05-01T00:02:37.992Z,9.30
2018-05-01T00:05:06.548Z,9.90
2018-05-01T00:07:35.110Z,10.20
2018-05-01T00:10:03.329Z,11.10
2018-05-01T00:12:31.938Z,10.67
2018-05-01T00:15:00.507Z,10.77
2018-05-01T00:17:29.073Z,10.70
2018-05-01T00:19:57.628Z,9.97
2018-05-01T00:22:26.187Z,9.77
2018-05-01T00:24:54.756Z,10.07
2018-05-01T00:27:23.335Z,9.50
2018-05-01T00:29:51.897Z,10.20
2018-05-01T00:32:20.463Z,9.70
2018-05-01T00:34:49.055Z,9.60
2018-05-01T00:37:17.606Z,9.47
2018-05-01T00:39:46.511Z,9.40
2018-05-01T00:42:15.094Z,10.03
2018-05-01T00:44:43.690Z,8.83
2018-05-01T00:47:12.269Z,10.23
2018-05-01T00:49:40.868Z,9.93
2018-05-01T00:52:08.753Z,9.60
2018-05-01T00:54:37.367Z,9.60
2018-05-01T00:57:05.929Z,9.40
2018-05-01T00:59:34.491Z,9.63
2018-05-01T01:02:03.043Z,9.37
2018-05-01T01:04:31.598Z,9.67
2018-05-01T01:07:00.171Z,9.60
2018-05-01T01:09:28.971Z,10.10
2018-05-01T01:11:57.527Z,10.43
2018-05-01T01:14:25.901Z,9.67
2018-05-01T01:16:54.508Z,9.40
2018-05-01T01:19:23.068Z,9.57
2018-05-01T01:21:51.632Z,9.63
2018-05-01T01:24:20.193Z,9.17
2018-05-01T01:26:48.547Z,9.57
2018-05-01T01:29:17.149Z,8.87
2018-05-01T01:31:45.759Z,9.27
2018-05-01T01:34:14.390Z,8.87
2018-05-01T01:36:41.712Z,9.70
2018-05-01T01:39:09.084Z,9.23
2018-05-01T01:41:36.448Z,9.30
2018-05-01T01:44:03.826Z,10.10
2018-05-01T01:46:31.153Z,9.40
2018-05-01T01:48:58.533Z,10.30
2018-05-01T01:51:25.907Z,10.23
2018-05-01T01:53:53.232Z,9.47
2018-05-01T01:56:20.559Z,9.20
2018-05-01T01:58:47.871Z,8.60
2018-05-01T02:01:15.237Z,9.13
2018-05-01T02:03:42.565Z,9.67
2018-05-01T02:06:09.905Z,9.20
2018-05-01T02:08:37.228Z,9.80
2018-05-01T02:11:04.604Z,9.90
2018-05-01T02:13:32.180Z,9.60
2018-05-01T02:15:59.545Z,9.33
2018-05-01T02:18:26.894Z,8.97
2018-05-01T02:23:27.863Z,9.03
2018-05-01T02:25:55.249Z,9.40
2018-05-01T02:28:22.741Z,9.73
2018-05-01T02:30:50.069Z,9.00
2018-05-01T02:33:17.402Z,10.17
2018-05-01T02:35:44.806Z,9.33
2018-05-01T02:38:12.132Z,10.40
2018-05-01T02:40:39.471Z,10.13
2018-05-01T02:43:06.795Z,9.93
2018-05-01T02:45:34.127Z,10.00
2018-05-01T02:48:01.453Z,9.37
2018-05-01T02:50:28.800Z,10.23
2018-05-01T02:52:56.123Z,10.57
2018-05-01T02:55:23.457Z,11.30
2018-05-01T02:57:50.831Z,10.40
2018-05-01T03:00:18.148Z,11.00
2018-05-01T03:02:45.500Z,10.00
2018-05-01T03:05:12.832Z,9.53
2018-05-01T03:07:40.155Z,9.87
2018-05-01T03:10:07.487Z,8.90
2018-05-01T03:12:34.818Z,8.90
2018-05-01T03:15:02.162Z,9.30
2018-05-01T03:17:29.490Z,8.60
2018-05-01T03:19:56.847Z,9.53
2018-05-01T03:22:24.175Z,9.83
2018-05-01T03:24:51.572Z,10.20
2018-05-01T03:27:18.931Z,9.53
2018-05-01T03:29:46.258Z,9.17
2018-05-01T03:32:13.654Z,9.47
2018-05-01T03:34:40.991Z,9.07
2018-05-01T03:37:08.328Z,9.70
2018-05-01T03:39:35.677Z,9.73
2018-05-01T03:42:03.059Z,10.10
2018-05-01T03:44:30.407Z,11.13
2018-05-01T03:46:57.782Z,10.57
2018-05-01T03:49:25.125Z,9.87
2018-05-01T03:51:52.500Z,10.40
2018-05-01T03:54:19.829Z,10.17
2018-05-01T03:56:47.159Z,11.00
2018-05-01T03:59:14.484Z,10.97
2018-05-01T04:01:41.848Z,10.90
2018-05-01T04:04:09.178Z,11.37
2018-05-01T04:06:36.552Z,10.67
2018-05-01T04:09:03.660Z,10.90
2018-05-01T04:11:30.984Z,10.63
2018-05-01T04:13:59.230Z,10.40
2018-05-01T04:16:26.572Z,9.70
2018-05-01T04:18:53.916Z,10.03
2018-05-01T04:21:21.530Z,10.00
2018-05-01T04:23:48.867Z,10.07
2018-05-01T04:26:16.183Z,10.53
2018-05-01T04:28:43.498Z,9.67
2018-05-01T04:31:10.842Z,9.83
2018-05-01T04:33:38.178Z,10.37
2018-05-01T04:36:05.523Z,9.93
2018-05-01T04:38:32.861Z,9.77
2018-05-01T04:41:00.285Z,10.40
2018-05-01T04:43:27.629Z,10.57
2018-05-01T04:45:55.067Z,11.67
2018-05-01T04:48:22.176Z,10.87
2018-05-01T04:50:49.503Z,11.97
2018-05-01T04:53:16.878Z,11.90
2018-05-01T04:55:44.200Z,11.27
2018-05-01T04:58:11.545Z,11.67
2018-05-01T05:00:38.879Z,11.50
2018-05-01T05:03:06.206Z,11.77
2018-05-01T05:05:33.544Z,11.60
2018-05-01T05:08:00.923Z,11.50
2018-05-01T05:10:28.248Z,11.87
2018-05-01T05:12:55.627Z,11.80
2018-05-01T05:15:22.952Z,11.50
2018-05-01T05:17:50.275Z,11.90
2018-05-01T05:20:17.599Z,11.40
2018-05-01T05:22:44.935Z,11.93
2018-05-01T05:25:12.263Z,12.30
2018-05-01T05:27:39.593Z,12.17
2018-05-01T05:30:06.978Z,12.90
2018-05-01T05:32:34.304Z,13.63
2018-05-01T05:35:01.642Z,13.30
2018-05-01T05:37:28.976Z,13.73
2018-05-01T05:39:56.302Z,12.10
2018-05-01T05:42:23.631Z,13.47
2018-05-01T05:44:50.953Z,14.07
2018-05-01T05:47:18.269Z,13.80
2018-05-01T05:49:45.596Z,15.17
2018-05-01T05:52:12.918Z,16.50
2018-05-01T05:54:40.248Z,14.40
2018-05-01T05:57:07.583Z,14.13
2018-05-01T05:59:34.903Z,14.40
2018-05-01T06:02:02.231Z,13.60
2018-05-01T06:04:30.276Z,14.20
2018-05-01T06:06:57.606Z,14.47
2018-05-01T06:09:24.978Z,14.27
2018-05-01T06:11:52.308Z,14.60
2018-05-01T06:14:19.639Z,14.40
2018-05-01T06:16:47.029Z,14.27
2018-05-01T06:19:14.361Z,13.77
2018-05-01T06:21:41.680Z,14.27
2018-05-01T06:24:09.015Z,14.33
2018-05-01T06:26:36.330Z,14.53
2018-05-01T06:29:03.784Z,13.50
2018-05-01T06:31:31.143Z,14.03
2018-05-01T06:33:58.486Z,13.87
2018-05-01T06:36:25.816Z,14.43
2018-05-01T06:38:53.148Z,14.53
2018-05-01T06:41:20.475Z,13.90
2018-05-01T06:43:47.821Z,13.50
2018-05-01T06:46:15.327Z,13.70
2018-05-01T06:48:43.399Z,14.10
2018-05-01T06:51:10.717Z,13.53
2018-05-01T06:53:38.041Z,15.43
2018-05-01T06:56:05.359Z,14.10
2018-05-01T06:58:32.707Z,13.60
2018-05-01T07:01:00.061Z,13.53
2018-05-01T07:03:27.387Z,15.87
2018-05-01T07:05:55.461Z,23.97
2018-05-01T07:08:22.902Z,20.00
2018-05-01T07:10:50.231Z,17.20
2018-05-01T07:13:17.619Z,14.50
2018-05-01T07:15:45.084Z,15.53
2018-05-01T07:18:12.426Z,15.50
2018-05-01T07:20:39.747Z,16.50
2018-05-01T07:23:07.106Z,13.40
2018-05-01T07:25:34.427Z,13.37
2018-05-01T07:28:01.811Z,13.43
2018-05-01T07:30:29.174Z,13.13
2018-05-01T07:32:56.539Z,14.07
2018-05-01T07:35:23.705Z,13.23
2018-05-01T07:37:51.031Z,14.17
2018-05-01T07:40:18.365Z,14.03
2018-05-01T07:42:45.700Z,13.97
2018-05-01T07:45:13.057Z,14.13
2018-05-01T07:47:40.423Z,15.83
2018-05-01T07:50:07.754Z,14.77
2018-05-01T07:52:35.082Z,14.17
2018-05-01T07:55:02.403Z,14.50
2018-05-01T07:57:29.764Z,14.30
2018-05-01T07:59:57.083Z,13.63
2018-05-01T08:02:24.408Z,13.37
2018-05-01T08:04:51.726Z,12.83
2018-05-01T08:07:19.062Z,12.90
2018-05-01T08:09:46.384Z,12.10
2018-05-01T08:12:13.718Z,13.27
2018-05-01T08:14:41.350Z,12.57
2018-05-01T08:17:08.681Z,11.50
2018-05-01T08:19:36.057Z,12.47
2018-05-01T08:22:03.370Z,11.47
2018-05-01T08:24:30.773Z,11.33
2018-05-01T08:26:58.287Z,10.53
2018-05-01T08:29:25.649Z,11.73
2018-05-01T08:31:52.972Z,10.53
2018-05-01T08:34:20.299Z,10.07
2018-05-01T08:36:48.653Z,10.13
2018-05-01T08:39:16.114Z,10.33
2018-05-01T08:41:43.451Z,9.97
2018-05-01T08:44:10.775Z,9.63
2018-05-01T08:46:38.121Z,8.53
2018-05-01T08:49:05.443Z,9.53
2018-05-01T08:51:32.773Z,8.53
2018-05-01T08:54:00.113Z,9.50
2018-05-01T08:56:27.441Z,7.90
2018-05-01T08:58:54.784Z,8.13
2018-05-01T09:01:22.103Z,8.40
2018-05-01T09:03:49.543Z,7.80
2018-05-01T09:06:18.733Z,6.57
2018-05-01T09:08:46.885Z,7.47
2018-05-01T09:11:14.263Z,7.10
2018-05-01T09:13:41.581Z,6.40
2018-05-01T09:16:09.020Z,7.13
2018-05-01T09:18:36.353Z,6.80
2018-05-01T09:21:03.677Z,7.47
2018-05-01T09:23:30.996Z,6.33
2018-05-01T09:25:58.421Z,6.47
2018-05-01T09:28:26.286Z,7.33
2018-05-01T09:30:53.644Z,6.90
2018-05-01T09:33:20.970Z,6.03
2018-05-01T09:35:48.301Z,6.47
2018-05-01T09:38:15.667Z,6.37
2018-05-01T09:40:42.992Z,6.40
2018-05-01T09:43:10.306Z,7.40
2018-05-01T09:45:38.325Z,6.40
2018-05-01T09:48:05.641Z,5.97
2018-05-01T09:50:32.998Z,6.27
2018-05-01T09:53:01.599Z,7.20
2018-05-01T09:55:30.154Z,7.20
2018-05-01T09:57:58.751Z,7.13
2018-05-01T10:00:27.372Z,7.60
2018-05-01T10:02:55.712Z,6.63
2018-05-01T10:05:27.343Z,7.00
2018-05-01T10:07:55.915Z,6.47
2018-05-01T10:10:24.472Z,6.03
2018-05-01T10:12:53.026Z,6.33
2018-05-01T10:15:21.397Z,9.20
2018-05-01T10:17:49.995Z,7.60
2018-05-01T10:20:18.591Z,6.37
2018-05-01T10:22:47.176Z,8.60
2018-05-01T10:25:15.561Z,7.13
2018-05-01T10:27:43.907Z,7.13
2018-05-01T10:30:12.233Z,7.60
2018-05-01T10:32:40.799Z,8.80
2018-05-01T10:35:09.354Z,7.50
2018-05-01T10:37:37.939Z,6.53
2018-05-01T10:40:06.516Z,6.07
2018-05-01T10:42:35.263Z,7.37
2018-05-01T10:45:03.816Z,6.43
2018-05-01T10:47:32.362Z,7.33
2018-05-01T10:50:00.965Z,7.00
2018-05-01T10:52:29.291Z,7.03
2018-05-01T10:54:57.843Z,6.93
2018-05-01T10:57:26.391Z,7.13
2018-05-01T10:59:54.951Z,6.50
2018-05-01T11:02:23.523Z,6.87
2018-05-01T11:04:52.108Z,6.50
2018-05-01T11:07:20.657Z,7.00
2018-05-01T11:09:49.284Z,7.37
2018-05-01T11:12:17.623Z,6.73
2018-05-01T11:14:46.199Z,7.17
2018-05-01T11:17:14.751Z,6.83
2018-05-01T11:19:44.210Z,7.33
2018-05-01T11:22:12.778Z,7.50
2018-05-01T11:24:41.455Z,7.53
2018-05-01T11:27:10.195Z,6.80
2018-05-01T11:29:38.755Z,7.23
2018-05-01T11:32:07.332Z,7.93
2018-05-01T11:34:35.886Z,7.03
2018-05-01T11:37:04.443Z,7.20
2018-05-01T11:39:33.006Z,7.80
2018-05-01T11:42:01.672Z,8.30
2018-05-01T11:44:30.229Z,7.43
2018-05-01T11:46:58.803Z,7.57
2018-05-01T11:49:27.575Z,8.30
2018-05-01T11:51:56.140Z,8.47
2018-05-01T11:54:25.466Z,8.53
2018-05-01T11:56:54.091Z,8.07
2018-05-01T11:59:22.943Z,8.53
2018-05-01T12:01:51.724Z,8.70
2018-05-01T12:04:20.801Z,8.77
2018-05-01T12:06:49.391Z,9.13
2018-05-01T12:09:18.787Z,8.63
2018-05-01T12:11:47.337Z,8.70
2018-05-01T12:14:16.847Z,14.63
2018-05-01T12:16:45.429Z,9.60
2018-05-01T12:19:14.041Z,9.07
2018-05-01T12:21:42.598Z,8.83
2018-05-01T12:24:11.205Z,8.80
2018-05-01T12:26:39.823Z,9.50
2018-05-01T12:29:08.376Z,8.40
2018-05-01T12:31:36.974Z,8.73
2018-05-01T12:34:05.537Z,8.23
2018-05-01T12:36:34.245Z,8.83
2018-05-01T12:39:02.905Z,8.87
2018-05-01T12:41:31.522Z,8.50
2018-05-01T12:44:00.088Z,8.30
2018-05-01T12:46:28.639Z,7.93
2018-05-01T12:48:57.278Z,8.40
2018-05-01T12:51:25.849Z,7.90
2018-05-01T12:53:54.528Z,7.87
2018-05-01T12:56:23.232Z,7.30
2018-05-01T12:58:51.795Z,7.97
2018-05-01T13:01:20.357Z,8.77
2018-05-01T13:03:48.911Z,7.93
2018-05-01T13:06:17.512Z,7.67
2018-05-01T13:08:46.829Z,9.07
2018-05-01T13:11:15.381Z,8.47
2018-05-01T13:13:43.934Z,10.83
2018-05-01T13:16:12.859Z,9.97
2018-05-01T13:18:43.210Z,9.33
2018-05-01T13:21:11.780Z,7.40
2018-05-01T13:23:40.365Z,7.63
2018-05-01T13:26:08.934Z,7.30
2018-05-01T13:28:37.489Z,11.33
2018-05-01T13:31:06.980Z,8.43
2018-05-01T13:33:35.556Z,9.57
2018-05-01T13:36:04.121Z,8.70
2018-05-01T13:38:32.688Z,6.70
2018-05-01T13:41:01.264Z,7.77
2018-05-01T13:43:29.824Z,8.63
2018-05-01T13:45:58.406Z,9.33
2018-05-01T13:48:26.978Z,9.50
2018-05-01T13:50:55.540Z,7.00
2018-05-01T13:53:23.865Z,7.80
2018-05-01T13:55:52.425Z,7.10
2018-05-01T13:58:21.050Z,7.57
2018-05-01T14:00:49.622Z,6.87
2018-05-01T14:03:18.197Z,6.80
2018-05-01T14:05:46.402Z,8.17
2018-05-01T14:08:15.003Z,8.57
2018-05-01T14:10:43.563Z,7.40
2018-05-01T14:13:12.141Z,7.57
2018-05-01T14:15:41.896Z,7.57
2018-05-01T14:18:10.472Z,7.57
2018-05-01T14:20:39.035Z,7.23
2018-05-01T14:23:07.632Z,6.83
2018-05-01T14:25:36.384Z,6.30
2018-05-01T14:28:05.019Z,6.67
2018-05-01T14:30:33.635Z,6.93
2018-05-01T14:33:02.192Z,6.17
2018-05-01T14:35:30.768Z,6.63
2018-05-01T14:38:00.248Z,6.87
2018-05-01T14:40:28.807Z,5.93
2018-05-01T14:42:57.387Z,6.17
2018-05-01T14:45:25.944Z,6.63
2018-05-01T14:47:54.711Z,6.67
2018-05-01T14:50:23.263Z,6.90
2018-05-01T14:52:52.726Z,6.90
2018-05-01T14:55:22.133Z,7.30
2018-05-01T14:57:51.082Z,7.27
2018-05-01T15:00:27.972Z,10.63
2018-05-01T15:03:06.826Z,7.50
2018-05-01T15:05:42.253Z,6.30
2018-05-01T15:08:11.336Z,6.80
2018-05-01T15:10:39.975Z,7.33
2018-05-01T15:13:18.113Z,7.60
2018-05-01T15:15:46.753Z,7.40
2018-05-01T15:18:15.342Z,6.93
2018-05-01T15:20:44.007Z,7.53
2018-05-01T15:23:12.467Z,6.93
2018-05-01T15:25:41.032Z,6.97
2018-05-01T15:28:09.607Z,7.00
2018-05-01T15:30:37.338Z,7.50
2018-05-01T15:33:05.892Z,7.57
2018-05-01T15:35:34.582Z,7.07
2018-05-01T15:38:04.083Z,7.07
2018-05-01T15:40:32.650Z,6.80
2018-05-01T15:43:01.215Z,6.87
2018-05-01T15:45:29.767Z,6.30
2018-05-01T15:47:59.204Z,6.93
2018-05-01T15:50:27.782Z,6.70
2018-05-01T15:52:56.861Z,6.33
2018-05-01T15:55:25.458Z,7.37
2018-05-01T15:57:54.006Z,6.70
2018-05-01T16:00:22.284Z,8.47
2018-05-01T16:02:50.865Z,7.37
2018-05-01T16:05:19.429Z,7.20
2018-05-01T16:07:47.672Z,7.10
2018-05-01T16:10:16.285Z,7.10
2018-05-01T16:12:44.661Z,7.63
2018-05-01T16:15:13.031Z,7.57
2018-05-01T16:17:41.359Z,8.27
2018-05-01T16:20:09.965Z,8.10
2018-05-01T16:22:38.523Z,7.60
2018-05-01T16:25:07.190Z,7.30
2018-05-01T16:27:35.758Z,8.60
2018-05-01T16:30:05.002Z,9.00
2018-05-01T16:32:33.398Z,8.50
2018-05-01T16:35:02.026Z,7.90
2018-05-01T16:37:30.647Z,7.87
2018-05-01T16:39:59.244Z,9.33
2018-05-01T16:42:27.840Z,7.87
2018-05-01T16:44:56.442Z,8.57
2018-05-01T16:47:25.007Z,8.73
2018-05-01T16:49:53.620Z,8.60
2018-05-01T16:52:22.179Z,8.17
2018-05-01T16:54:50.784Z,7.57
2018-05-01T16:57:19.371Z,8.03
2018-05-01T16:59:47.960Z,8.00
2018-05-01T17:02:16.570Z,8.03
2018-05-01T17:04:45.256Z,8.30
2018-05-01T17:07:13.806Z,8.73
2018-05-01T17:09:42.371Z,9.10
2018-05-01T17:12:10.635Z,8.47
2018-05-01T17:14:39.253Z,8.50
2018-05-01T17:17:08.830Z,8.93
2018-05-01T17:19:37.410Z,9.50
2018-05-01T17:22:06.010Z,8.73
2018-05-01T17:24:34.759Z,9.00
2018-05-01T17:27:03.320Z,8.60
2018-05-01T17:29:32.720Z,9.20
2018-05-01T17:32:01.283Z,9.37
2018-05-01T17:34:29.844Z,9.80
2018-05-01T17:36:58.420Z,9.57
2018-05-01T17:39:27.119Z,10.23
2018-05-01T17:41:55.683Z,10.43
2018-05-01T17:44:24.263Z,8.87
2018-05-01T17:46:52.848Z,10.63
2018-05-01T17:49:21.404Z,9.93
2018-05-01T17:51:50.023Z,9.40
2018-05-01T17:54:18.583Z,9.53
2018-05-01T17:56:48.136Z,10.13
2018-05-01T17:59:16.874Z,9.83
2018-05-01T18:01:45.510Z,9.80
2018-05-01T18:04:14.172Z,10.57
2018-05-01T18:06:42.773Z,9.13
2018-05-01T18:09:11.355Z,10.37
2018-05-01T18:11:39.907Z,9.40
2018-05-01T18:14:08.488Z,10.60
2018-05-01T18:16:37.055Z,12.73
2018-05-01T18:19:05.810Z,11.50
2018-05-01T18:21:34.378Z,12.53
2018-05-01T18:24:03.079Z,11.63
2018-05-01T18:26:31.644Z,12.40
2018-05-01T18:29:00.195Z,12.53
2018-05-01T18:31:28.947Z,12.33
2018-05-01T18:33:57.508Z,12.80
2018-05-01T18:36:26.079Z,13.20
2018-05-01T18:38:54.712Z,13.27
2018-05-01T18:41:23.375Z,11.70
2018-05-01T18:43:51.955Z,11.03
2018-05-01T18:46:20.573Z,9.63
2018-05-01T18:48:49.237Z,10.10
2018-05-01T18:51:17.828Z,9.70
2018-05-01T18:53:46.474Z,9.80
2018-05-01T18:56:15.040Z,8.90
2018-05-01T18:58:44.603Z,9.07
2018-05-01T19:01:13.156Z,9.23
2018-05-01T19:03:41.708Z,9.70
2018-05-01T19:06:10.395Z,9.90
2018-05-01T19:08:39.031Z,10.40
2018-05-01T19:11:07.390Z,9.60
2018-05-01T19:13:35.993Z,10.77
2018-05-01T19:16:04.564Z,10.50
2018-05-01T19:18:36.345Z,9.03
2018-05-01T19:21:04.901Z,9.50
2018-05-01T19:23:33.468Z,11.70
2018-05-01T19:26:03.134Z,9.27
2018-05-01T19:28:31.701Z,8.50
2018-05-01T19:31:00.266Z,8.77
2018-05-01T19:33:28.820Z,8.27
2018-05-01T19:36:00.917Z,8.93
2018-05-01T19:38:29.637Z,7.70
2018-05-01T19:40:58.196Z,7.27
2018-05-01T19:43:26.755Z,7.07
2018-05-01T19:45:55.338Z,7.87
2018-05-01T19:48:23.908Z,7.20
2018-05-01T19:50:52.503Z,7.57
2018-05-01T19:53:22.254Z,8.27
2018-05-01T19:55:50.848Z,7.73
2018-05-01T19:58:19.427Z,7.17
2018-05-01T20:00:48.073Z,7.43
2018-05-01T20:03:16.714Z,8.20
2018-05-01T20:05:45.499Z,7.33
2018-05-01T20:08:14.067Z,7.53
2018-05-01T20:10:42.630Z,7.17
2018-05-01T20:13:12.159Z,7.30
2018-05-01T20:15:42.620Z,7.50
2018-05-01T20:18:11.179Z,7.37
2018-05-01T20:20:39.762Z,8.47
2018-05-01T20:23:08.335Z,8.47
2018-05-01T20:25:36.952Z,7.63
2018-05-01T20:28:05.511Z,7.33
2018-05-01T20:30:34.113Z,7.43
2018-05-01T20:33:02.687Z,7.13
2018-05-01T20:35:31.250Z,6.97
2018-05-01T20:37:59.883Z,7.80
2018-05-01T20:40:28.479Z,7.00
2018-05-01T20:42:57.121Z,8.10
2018-05-01T20:45:25.722Z,8.10
2018-05-01T20:47:54.280Z,7.67
2018-05-01T20:50:22.841Z,7.27
2018-05-01T20:52:51.427Z,7.17
2018-05-01T20:55:20.002Z,7.33
2018-05-01T20:57:48.600Z,9.10
2018-05-01T21:00:17.468Z,9.20
2018-05-01T21:02:46.032Z,8.47
2018-05-01T21:05:14.640Z,8.00
2018-05-01T21:07:43.248Z,8.27
2018-05-01T21:10:14.784Z,8.33
2018-05-01T21:12:43.440Z,8.20
2018-05-01T21:15:11.999Z,8.07
2018-05-01T21:17:40.561Z,8.17
2018-05-01T21:20:09.130Z,8.10
2018-05-01T21:22:38.559Z,7.63
2018-05-01T21:25:07.749Z,8.33
2018-05-01T21:27:40.759Z,8.00
2018-05-01T21:30:09.762Z,8.40
2018-05-01T21:32:38.328Z,8.03
2018-05-01T21:35:06.911Z,7.67
2018-05-01T21:37:35.494Z,8.13
2018-05-01T21:40:03.704Z,8.20
2018-05-01T21:42:32.304Z,7.10
2018-05-01T21:45:01.253Z,7.43
2018-05-01T21:47:29.823Z,7.43
2018-05-01T21:49:58.384Z,6.80
2018-05-01T21:52:26.944Z,6.83
2018-05-01T21:54:56.121Z,7.23
2018-05-01T21:57:24.699Z,7.43
2018-05-01T21:59:53.295Z,7.87
2018-05-01T22:02:21.887Z,6.83
2018-05-01T22:04:50.459Z,6.03
2018-05-01T22:07:19.036Z,6.23
2018-05-01T22:09:47.585Z,6.37
2018-05-01T22:12:16.191Z,6.37
2018-05-01T22:14:44.465Z,6.30
2018-05-01T22:17:13.053Z,5.97
2018-05-01T22:19:41.612Z,5.50
2018-05-01T22:22:11.147Z,6.47
2018-05-01T22:24:39.695Z,6.50
2018-05-01T22:27:08.275Z,5.90
2018-05-01T22:29:37.003Z,5.40
2018-05-01T22:32:05.206Z,5.23
2018-05-01T22:34:33.772Z,5.70
2018-05-01T22:37:02.323Z,5.60
2018-05-01T22:39:30.868Z,5.13
2018-05-01T22:42:00.057Z,5.13
2018-05-01T22:44:28.610Z,5.30
2018-05-01T22:46:57.166Z,5.27
2018-05-01T22:49:25.716Z,5.37
2018-05-01T22:51:54.316Z,5.60
2018-05-01T22:54:22.863Z,4.90
2018-05-01T22:56:51.418Z,5.27
2018-05-01T22:59:19.743Z,5.47
2018-05-01T23:01:48.305Z,4.70
2018-05-01T23:04:16.867Z,5.63
2018-05-01T23:06:45.441Z,5.80
2018-05-01T23:09:14.002Z,4.90
2018-05-01T23:11:42.549Z,5.33
2018-05-01T23:14:11.152Z,5.20
2018-05-01T23:16:39.701Z,4.90
2018-05-01T23:19:08.262Z,4.90
2018-05-01T23:21:36.815Z,4.97
2018-05-01T23:24:05.365Z,5.53
2018-05-01T23:26:33.923Z,4.97
2018-05-01T23:29:02.540Z,5.50
2018-05-01T23:31:31.252Z,5.43
2018-05-01T23:33:59.805Z,5.20
2018-05-01T23:36:28.354Z,5.17
2018-05-01T23:38:56.904Z,5.00
2018-05-01T23:41:25.478Z,4.80
2018-05-01T23:43:54.047Z,5.60
2018-05-01T23:46:22.600Z,4.77
2018-05-01T23:48:51.207Z,5.83
2018-05-01T23:51:19.807Z,5.47
2018-05-01T23:53:48.381Z,5.27
2018-05-01T23:56:16.939Z,5.00
2018-05-01T23:58:45.505Z,5.33
